SMRA80 UAOL 191500
AAXX 19151
85139 42465 30000 10292 20250 39946 40140 52011 82130 333 56770 58004 82815 83358=
85284 32484 70105 10151 20087 37059 58004 83504 333 56100 58011 83617 84070=
85332 42570 53106 10150 20045 36593 58004 83232 333 56400 58007 83820 85070=
86170 21370 82004 10244 20225 30023 40126 51002 70262 886// 333 60047 88710=
86221 21350 80000 10234 20229 30017 40152 52016 76166 885// 333 60037 88612=
86246 32370 80605 10268 20241 39863 40145 54000 85670 333 83712 85627 88457=
86586 42570 32610 10308 20183 30093 40131 51002 81104 555 10222 20240 30144=
88968 41358 81406 10004 21010 39874 49890 57020 71022 886// 333 56299 88708 90015 92416 95068=
89570 46/// /0207 11046 21074 39068 56005 6///0=
89578 46/// /0208 11365 36798 4//// 5////=
89611 453// 81008 11016 21039 39692 49743 53003 333 10016=
89615 451// 81105 11085 21130 38855 56001 333 11026=
89642 40/// /0815 11030 21035 39712 49765 57007=
89648 46/// /2607 11313 29067 37097 4//// 5////=
89661 46/// /2604 11065 29090 39147 4//// 5////=
89664 41661 60908 11036 21127 39738 49779 57002 71422 81549 333 56044 81635 85362 99115=
89767 46/// ///// 11051 39666 4//// 5////=
89809 46/// /1208 11082 21101 39292 55000=
89828 46/// ///// 11330 36421 4//// 5////=



SMUS80 KWBC 191500
AAXX 19154
85043 42465 50000 10284 20234 39987 40142 51007 84530 333 56330 58006 84615 85358=
85104 42465 43206 10308 20252 39980 40141 52012 84200 333 56700 58000 84817=
85109 42465 50906 10309 20251 39974 40132 52014 85200 333 56200 58002 85817=
85114 42465 70000 10302 20256 39972 40134 52011 83230 333 56770 58003 83817 86358=
85123 42465 63005 10300 20238 39975 40140 51013 83202 333 56706 58005 83817 85070=
85141 41470 70000 10265 20252 39904 40133 51012 72162 83330 333 56770 58004 83615 81920 87357=
85152 41458 70000 10294 20256 39907 40136 52011 71522 86830 333 56770 58007 86817 87358=
85153 42465 60000 10290 20251 39956 40145 51008 84904 333 56706 58010 83615 81923 86070=
85154 41456 72703 10306 20246 39962 40142 50002 71522 85902 333 56706 58003 84817 81920 85070=
85195 42570 30000 10294 20227 39540 40139 51008 83200 333 56700 58017 84820=
85196 42480 60000 10280 20225 39583 40167 50001 86200 333 56700 58003 86817=
85201 41465 60905 10124 20031 36321 51005 71522 84332 333 56100 58006 83817 81920 85070=
85207 42480 40000 10300 20244 39677 40152 54000 84200 333 56800 58002 84817=
85210 42480 40000 10330 20237 30056 40166 51004 84100 333 56800 59004 84817=
85223 41570 72907 10198 20099 37539 47181 58001 70262 83132 333 56111 58017 83825 84357 87070=
85242 41465 60513 10132 20057 36568 51002 71521 86332 333 56220 58007 85817 81920=
85244 42470 69902 10300 20238 39719 40141 58004 84801 333 56909 58016 83615 84820 86070=
85245 42470 69902 10280 20225 39665 40140 58004 85801 333 56709 58021 82612 85817 81825 86070=
85247 42570 20000 10318 20241 39844 40178 54000 82200 333 56700 58006 82820=
85264 42580 73504 10181 20146 38065 51004 86201 333 56709 58015 86823 87070=
85268 42570 40000 10316 20240 39846 40177 50002 84900 333 56800 58013 83820 81925=
85289 42580 60000 10308 20267 39962 40116 51002 83930 333 56890 58000 82820 81927 86357=
85293 41465 70603 10098 20063 36402 57006 70222 85121 333 56000 58008 85815 86457=
85312 41570 71603 10249 20198 38924 50003 71522 84232 333 56000 58028 84825 87070=
85315 41470 80000 10225 20188 39260 40135 51008 71521 8752/ 333 56809 58037 87613 88457=
85345 42484 80000 10251 20211 39691 40157 50005 8652/ 333 56009 58027 86617 88457=
85364 41570 71302 10212 20156 38173 48196 50006 71522 84521 333 56200 58018 84623 85457=
85365 42570 82108 10251 20209 39423 40150 54000 8252/ 333 56009 58019 82623 88457=
85394 42475 70103 10251 20219 39725 40153 52003 82550 333 56000 59001 82615 87357=
86086 21460 73602 10260 20231 30026 40116 57005 79592 83970 333 60057 82827 81940 86457=
86097 32870 60306 10288 20217 39509 40140 57001 84036 333 84358 85270=
86134 32570 81807 10278 20236 30058 40144 51006 8557/ 333 85620 88457=
86210 32570 63206 10280 20223 39788 40124 52003 83270 333 83833 83358=
86218 22470 71304 10238 20227 30054 40151 50002 84670 333 60357 84620 87357=
86234 32370 71402 10266 20214 39968 40151 52004 82570 333 82610 85457=
86255 32670 61803 10286 20218 30079 40145 53008 84230 333 84840 82370=
86268 32570 80000 10276 20236 39980 40142 58001 8487/ 333 84833 88357=
86297 32470 61405 10282 20204 39917 40145 52008 86500 333 86627=
86350 42570 20805 10304 20145 39884 40154 58001 81105 555 10200 20260 39941=
86430 42562 70000 10311 20179 30092 40162 58002 81208 555 10221 20232 30144=
86440 42570 12205 10296 20168 40147 58003 81200 555 10210=
86450 42570 22909 10303 20192 30052 40144 58005 81106 555 10226 20282 30112=
86460 42570 12310 10304 20181 30056 40143 58005 81200 555 10220 20296 30119=
86490 42568 72712 10311 20203 30127 40147 58006 81104 555 10235 20278 30186=
86500 42570 42709 10317 20150 30084 40137 50006 84105 555 10207 20295 30146=
86530 42565 12911 10305 20181 30031 40137 57007 81200 555 10220 20237 30083=
86545 42560 22713 10316 20199 30058 40135 5/004 81205 555 10234 20250 30112=
86560 42968 12407 10277 20160 30109 40132 51003 80001 555 10200 20285 30169=
86565 42568 32905 10310 20189 30093 40114 57004 81455 555 10226 20260 30148=
86575 42565 22510 10277 20217 30084 40142 54005 82100 555 10234 20213 30131=
86580 42670 12510 10278 20207 30094 40133 51001 81200 555 10228 20235 30145=
86585 42460 22213 10258 20226 30112 40132 51003 82100 555 10235 20269 30168=
89034 42570 81612 11021 21033 39540 49853 57009 8802/ 333 56009 88530 92840=
89055 41000 83608 11005 21006 39560 49800 58004 77174 886// 333 56899 88701 90563 90664 92739 92801 95190 96044=
89066 42270 81408 10030 21035 39744 49752 52004 8567/ 333 56369 85704 88360 92417 92731 95082=
89314 46/// ///// 11135 38162 4//// 5////=
89532 42980 12705 11007 21084 39779 49806 51006 81032=
89564 45/// /1220 10008 21052 39740 49759 51001 6///0 333 10030=
89571 45/// /3405 11007 21037 39725 49753 57003 6///2 333 10027=
89577 46/// /0703 11349 35736 4//// 5////=
89879 46/// ///// 11010 39682 4//// 5////=